SAS246 ENZV-ENVA
Flight info
| Callsign | SAS246 |
|---|---|
| Flight time | 1h 4m |
| Altitude | 35000 |
| Route | ODINU DCT NELSU |
| Aircraft | B738/M-SDE2E3FGHIRWXY/LB1 |
Departure
| Time | 2026-04-27 13:37 |
|---|---|
| Airport | Stavanger Airport, Sola (ENZV) |
Arrival
| Time | 2026-04-27 14:42 |
|---|---|
| Airport | Trondheim Airport, Værnes (ENVA) |
| Time | Latitude | Longitude | Altitude | Speed | Heading |
|---|---|---|---|---|---|
| 2026-04-27 13:08 | 58.88197 | 5.63111 | 29 ft | 0 kts | 285° |
| 2026-04-27 13:23 | 58.88196 | 5.63117 | 29 ft | 2 kts | 285° |
| 2026-04-27 13:23 | 58.88192 | 5.63145 | 30 ft | 2 kts | 284° |
| 2026-04-27 13:23 | 58.88189 | 5.63174 | 30 ft | 2 kts | 285° |
| 2026-04-27 13:23 | 58.88185 | 5.63202 | 30 ft | 2 kts | 285° |
| 2026-04-27 13:24 | 58.88181 | 5.63229 | 30 ft | 1 kts | 285° |
| 2026-04-27 13:24 | 58.88179 | 5.63248 | 30 ft | 2 kts | 271° |
| 2026-04-27 13:24 | 58.88182 | 5.63276 | 30 ft | 2 kts | 239° |
| 2026-04-27 13:24 | 58.88192 | 5.63297 | 30 ft | 2 kts | 210° |
| 2026-04-27 13:25 | 58.88205 | 5.63305 | 30 ft | 0 kts | 184° |
| 2026-04-27 13:25 | 58.88211 | 5.63305 | 30 ft | 1 kts | 180° |
| 2026-04-27 13:25 | 58.88213 | 5.63305 | 30 ft | 0 kts | 180° |
| 2026-04-27 13:25 | 58.88212 | 5.63305 | 30 ft | 0 kts | 180° |
| 2026-04-27 13:28 | 58.88198 | 5.63304 | 30 ft | 5 kts | 185° |
| 2026-04-27 13:28 | 58.88151 | 5.63284 | 30 ft | 6 kts | 200° |
| 2026-04-27 13:29 | 58.88093 | 5.63223 | 29 ft | 10 kts | 213° |
| 2026-04-27 13:29 | 58.88021 | 5.63264 | 29 ft | 11 kts | 130° |
| 2026-04-27 13:29 | 58.87973 | 5.63363 | 30 ft | 8 kts | 160° |
| 2026-04-27 13:29 | 58.87908 | 5.63340 | 28 ft | 11 kts | 202° |
| 2026-04-27 13:30 | 58.87864 | 5.63304 | 26 ft | 0 kts | 202° |
| 2026-04-27 13:30 | 58.87834 | 5.63291 | 26 ft | 11 kts | 185° |
| 2026-04-27 13:30 | 58.87735 | 5.63287 | 26 ft | 14 kts | 181° |
| 2026-04-27 13:31 | 58.87629 | 5.63291 | 26 ft | 17 kts | 179° |
| 2026-04-27 13:31 | 58.87499 | 5.63295 | 26 ft | 20 kts | 180° |
| 2026-04-27 13:31 | 58.87369 | 5.63298 | 26 ft | 19 kts | 180° |
| 2026-04-27 13:31 | 58.87240 | 5.63303 | 26 ft | 17 kts | 178° |
| 2026-04-27 13:32 | 58.87132 | 5.63309 | 27 ft | 13 kts | 178° |
| 2026-04-27 13:32 | 58.87047 | 5.63317 | 29 ft | 11 kts | 160° |
| 2026-04-27 13:32 | 58.86984 | 5.63397 | 29 ft | 10 kts | 140° |
| 2026-04-27 13:32 | 58.86951 | 5.63516 | 30 ft | 8 kts | 95° |
| 2026-04-27 13:33 | 58.86951 | 5.63601 | 31 ft | 3 kts | 89° |
| 2026-04-27 13:33 | 58.86951 | 5.63606 | 31 ft | 0 kts | 89° |
| 2026-04-27 13:36 | 58.86951 | 5.63613 | 32 ft | 3 kts | 89° |
| 2026-04-27 13:36 | 58.86952 | 5.63692 | 33 ft | 7 kts | 89° |
| 2026-04-27 13:36 | 58.86966 | 5.63793 | 33 ft | 8 kts | 30° |
| 2026-04-27 13:36 | 58.87001 | 5.63800 | 33 ft | 7 kts | 359° |
| 2026-04-27 13:37 | 58.87320 | 5.63789 | 30 ft | 95 kts | 359° |
| 2026-04-27 13:37 | 58.88273 | 5.63783 | 125 ft | 169 kts | 0° |
| 2026-04-27 13:37 | 58.89379 | 5.63896 | 1354 ft | 160 kts | 358° |
| 2026-04-27 13:37 | 58.90502 | 5.63790 | 2187 ft | 169 kts | 355° |
| 2026-04-27 13:38 | 58.91662 | 5.63622 | 3002 ft | 174 kts | 359° |
| 2026-04-27 13:38 | 58.92936 | 5.63598 | 3646 ft | 191 kts | 2° |
| 2026-04-27 13:38 | 58.94289 | 5.63598 | 4373 ft | 205 kts | 1° |
| 2026-04-27 13:38 | 58.95778 | 5.63573 | 5116 ft | 224 kts | 0° |
| 2026-04-27 13:39 | 58.97360 | 5.63531 | 5993 ft | 237 kts | 360° |
| 2026-04-27 13:39 | 58.99038 | 5.63480 | 6874 ft | 250 kts | 359° |
| 2026-04-27 13:39 | 59.00784 | 5.63426 | 7785 ft | 260 kts | 360° |
| 2026-04-27 13:39 | 59.02609 | 5.63371 | 8823 ft | 266 kts | 360° |
| 2026-04-27 13:40 | 59.04449 | 5.63315 | 9822 ft | 271 kts | 360° |
| 2026-04-27 13:40 | 59.06328 | 5.63312 | 10827 ft | 275 kts | 3° |
| 2026-04-27 13:40 | 59.08217 | 5.64016 | 11490 ft | 291 kts | 23° |
| 2026-04-27 13:40 | 59.09963 | 5.66178 | 12170 ft | 307 kts | 38° |
| 2026-04-27 13:41 | 59.11606 | 5.68926 | 12770 ft | 324 kts | 40° |
| 2026-04-27 13:41 | 59.13336 | 5.71910 | 13428 ft | 339 kts | 40° |
| 2026-04-27 13:41 | 59.15130 | 5.74922 | 14236 ft | 349 kts | 39° |
| 2026-04-27 13:41 | 59.17002 | 5.77981 | 15065 ft | 355 kts | 39° |
| 2026-04-27 13:42 | 59.18898 | 5.81024 | 15957 ft | 360 kts | 38° |
| 2026-04-27 13:42 | 59.20842 | 5.84119 | 16846 ft | 365 kts | 38° |
| 2026-04-27 13:42 | 59.22796 | 5.87221 | 17695 ft | 369 kts | 38° |
| 2026-04-27 13:42 | 59.24810 | 5.90419 | 18541 ft | 373 kts | 38° |
| 2026-04-27 13:43 | 59.26815 | 5.93610 | 19340 ft | 378 kts | 38° |
| 2026-04-27 13:43 | 59.28857 | 5.96867 | 20091 ft | 384 kts | 38° |
| 2026-04-27 13:43 | 59.30926 | 6.00174 | 20859 ft | 388 kts | 38° |
| 2026-04-27 13:43 | 59.33008 | 6.03507 | 21598 ft | 393 kts | 38° |
| 2026-04-27 13:44 | 59.35128 | 6.06907 | 22318 ft | 397 kts | 38° |
| 2026-04-27 13:44 | 59.37250 | 6.10317 | 22997 ft | 402 kts | 38° |
| 2026-04-27 13:44 | 59.39400 | 6.13780 | 23714 ft | 405 kts | 38° |
| 2026-04-27 13:44 | 59.41597 | 6.17322 | 24358 ft | 410 kts | 38° |
| 2026-04-27 13:45 | 59.43783 | 6.20852 | 25057 ft | 413 kts | 38° |
| 2026-04-27 13:45 | 59.46005 | 6.24446 | 25731 ft | 417 kts | 38° |
| 2026-04-27 13:45 | 59.48249 | 6.28084 | 26429 ft | 419 kts | 38° |
| 2026-04-27 13:45 | 59.50463 | 6.31679 | 27063 ft | 422 kts | 38° |
| 2026-04-27 13:46 | 59.52746 | 6.35395 | 27709 ft | 424 kts | 38° |
| 2026-04-27 13:46 | 59.55009 | 6.39085 | 28294 ft | 428 kts | 39° |
| 2026-04-27 13:46 | 59.57296 | 6.42819 | 28892 ft | 431 kts | 39° |
| 2026-04-27 13:46 | 59.59611 | 6.46607 | 29443 ft | 435 kts | 39° |
| 2026-04-27 13:47 | 59.61916 | 6.50386 | 29997 ft | 438 kts | 39° |
| 2026-04-27 13:47 | 59.64277 | 6.54245 | 30524 ft | 441 kts | 38° |
| 2026-04-27 13:47 | 59.66649 | 6.57941 | 31262 ft | 437 kts | 36° |
| 2026-04-27 13:47 | 59.69142 | 6.61325 | 31987 ft | 433 kts | 31° |
| 2026-04-27 13:48 | 59.71753 | 6.64230 | 32584 ft | 431 kts | 27° |
| 2026-04-27 13:48 | 59.74451 | 6.66899 | 33143 ft | 431 kts | 25° |
| 2026-04-27 13:48 | 59.77128 | 6.69353 | 33703 ft | 429 kts | 24° |
| 2026-04-27 13:48 | 59.79874 | 6.71774 | 34243 ft | 428 kts | 24° |
| 2026-04-27 13:49 | 59.82553 | 6.74111 | 34750 ft | 427 kts | 23° |
| 2026-04-27 13:49 | 59.85296 | 6.76513 | 35176 ft | 426 kts | 23° |
| 2026-04-27 13:49 | 59.90752 | 6.81368 | 35304 ft | 429 kts | 24° |
| 2026-04-27 13:50 | 59.96178 | 6.86285 | 35291 ft | 424 kts | 24° |
| 2026-04-27 13:50 | 60.01536 | 6.91192 | 35319 ft | 429 kts | 24° |
| 2026-04-27 13:51 | 60.04240 | 6.93681 | 35630 ft | 428 kts | 24° |
| 2026-04-27 13:51 | 60.06918 | 6.96155 | 35979 ft | 426 kts | 24° |
| 2026-04-27 13:51 | 60.09611 | 6.98648 | 36260 ft | 426 kts | 23° |
| 2026-04-27 13:51 | 60.12278 | 7.01122 | 36620 ft | 427 kts | 23° |
| 2026-04-27 13:52 | 60.14981 | 7.03635 | 36995 ft | 427 kts | 23° |
| 2026-04-27 13:52 | 60.17683 | 7.06148 | 37224 ft | 430 kts | 23° |
| 2026-04-27 13:52 | 60.23071 | 7.11175 | 37227 ft | 427 kts | 23° |
| 2026-04-27 13:53 | 60.31138 | 7.18738 | 37241 ft | 427 kts | 23° |
| 2026-04-27 13:54 | 60.36511 | 7.23797 | 37248 ft | 427 kts | 23° |
| 2026-04-27 13:54 | 60.41864 | 7.28856 | 37258 ft | 428 kts | 23° |
| 2026-04-27 13:55 | 60.47237 | 7.33955 | 37262 ft | 426 kts | 22° |
| 2026-04-27 13:55 | 60.52584 | 7.39045 | 37263 ft | 427 kts | 22° |
| 2026-04-27 13:56 | 60.57936 | 7.44160 | 37241 ft | 426 kts | 22° |
| 2026-04-27 13:56 | 60.63260 | 7.49265 | 37229 ft | 426 kts | 22° |
| 2026-04-27 13:57 | 60.68628 | 7.54430 | 37218 ft | 427 kts | 22° |
| 2026-04-27 13:57 | 60.73978 | 7.59598 | 37206 ft | 426 kts | 22° |
| 2026-04-27 13:58 | 60.79294 | 7.64753 | 37214 ft | 426 kts | 22° |
| 2026-04-27 13:58 | 60.84631 | 7.69949 | 37208 ft | 426 kts | 23° |
| 2026-04-27 13:59 | 60.89998 | 7.75192 | 37216 ft | 427 kts | 22° |
| 2026-04-27 13:59 | 60.95311 | 7.80402 | 37215 ft | 426 kts | 22° |
| 2026-04-27 14:00 | 61.00655 | 7.85662 | 37234 ft | 426 kts | 22° |
| 2026-04-27 14:00 | 61.05975 | 7.90916 | 37232 ft | 426 kts | 22° |
| 2026-04-27 14:01 | 61.11311 | 7.96206 | 37232 ft | 426 kts | 22° |
| 2026-04-27 14:01 | 61.16621 | 8.01492 | 37236 ft | 426 kts | 22° |
| 2026-04-27 14:02 | 61.21951 | 8.06815 | 37235 ft | 426 kts | 22° |
| 2026-04-27 14:02 | 61.27293 | 8.12174 | 37229 ft | 426 kts | 22° |
| 2026-04-27 14:03 | 61.32583 | 8.17500 | 37217 ft | 425 kts | 22° |
| 2026-04-27 14:03 | 61.37887 | 8.22858 | 37210 ft | 425 kts | 22° |
| 2026-04-27 14:04 | 61.43195 | 8.28243 | 37206 ft | 425 kts | 22° |
| 2026-04-27 14:04 | 61.48531 | 8.33676 | 37205 ft | 425 kts | 22° |
| 2026-04-27 14:05 | 61.53852 | 8.39114 | 37209 ft | 424 kts | 22° |
| 2026-04-27 14:05 | 61.59128 | 8.44525 | 37203 ft | 424 kts | 22° |
| 2026-04-27 14:06 | 61.64440 | 8.49994 | 37189 ft | 424 kts | 22° |
| 2026-04-27 14:06 | 61.69713 | 8.55446 | 37172 ft | 424 kts | 22° |
| 2026-04-27 14:07 | 61.75006 | 8.60937 | 37167 ft | 425 kts | 21° |
| 2026-04-27 14:07 | 61.80257 | 8.66405 | 37170 ft | 424 kts | 22° |
| 2026-04-27 14:08 | 61.85556 | 8.71946 | 37169 ft | 425 kts | 22° |
| 2026-04-27 14:08 | 61.90803 | 8.77453 | 37170 ft | 423 kts | 22° |
| 2026-04-27 14:08 | 61.93429 | 8.80217 | 37442 ft | 424 kts | 22° |
| 2026-04-27 14:09 | 61.96097 | 8.83030 | 37054 ft | 423 kts | 22° |
| 2026-04-27 14:09 | 61.98731 | 8.85815 | 37248 ft | 425 kts | 22° |
| 2026-04-27 14:09 | 62.01366 | 8.88606 | 37188 ft | 420 kts | 22° |
| 2026-04-27 14:10 | 62.06587 | 8.94153 | 37202 ft | 422 kts | 22° |
| 2026-04-27 14:10 | 62.11824 | 8.99733 | 37209 ft | 421 kts | 22° |
| 2026-04-27 14:11 | 62.17068 | 9.05345 | 37221 ft | 420 kts | 22° |
| 2026-04-27 14:11 | 62.22257 | 9.10918 | 37217 ft | 421 kts | 22° |
| 2026-04-27 14:12 | 62.27498 | 9.16569 | 37206 ft | 420 kts | 22° |
| 2026-04-27 14:12 | 62.32713 | 9.22216 | 37217 ft | 420 kts | 22° |
| 2026-04-27 14:13 | 62.37925 | 9.27880 | 37216 ft | 420 kts | 22° |
| 2026-04-27 14:13 | 62.43131 | 9.33559 | 37228 ft | 420 kts | 22° |
| 2026-04-27 14:14 | 62.48349 | 9.39274 | 37237 ft | 419 kts | 22° |
| 2026-04-27 14:14 | 62.53560 | 9.45008 | 37224 ft | 419 kts | 22° |
| 2026-04-27 14:15 | 62.58744 | 9.50731 | 37224 ft | 419 kts | 22° |
| 2026-04-27 14:15 | 62.63887 | 9.56438 | 36953 ft | 412 kts | 21° |
| 2026-04-27 14:15 | 62.66415 | 9.59254 | 36565 ft | 409 kts | 21° |
| 2026-04-27 14:16 | 62.68931 | 9.62058 | 36028 ft | 410 kts | 21° |
| 2026-04-27 14:16 | 62.71471 | 9.64890 | 35382 ft | 413 kts | 21° |
| 2026-04-27 14:16 | 62.74002 | 9.67712 | 34670 ft | 416 kts | 22° |
| 2026-04-27 14:16 | 62.76596 | 9.70612 | 33847 ft | 419 kts | 22° |
| 2026-04-27 14:17 | 62.79187 | 9.73517 | 33024 ft | 420 kts | 22° |
| 2026-04-27 14:17 | 62.81737 | 9.76386 | 32243 ft | 419 kts | 22° |
| 2026-04-27 14:17 | 62.84314 | 9.79293 | 31442 ft | 419 kts | 22° |
| 2026-04-27 14:17 | 62.86882 | 9.82194 | 30597 ft | 418 kts | 22° |
| 2026-04-27 14:18 | 62.89469 | 9.85124 | 29723 ft | 417 kts | 22° |
| 2026-04-27 14:18 | 62.92007 | 9.88004 | 28946 ft | 414 kts | 22° |
| 2026-04-27 14:18 | 62.94539 | 9.90886 | 28299 ft | 407 kts | 22° |
| 2026-04-27 14:18 | 62.97002 | 9.93699 | 27734 ft | 400 kts | 22° |
| 2026-04-27 14:19 | 62.99439 | 9.96488 | 27135 ft | 393 kts | 22° |
| 2026-04-27 14:19 | 63.01820 | 9.99214 | 26550 ft | 387 kts | 22° |
| 2026-04-27 14:19 | 63.04184 | 10.01923 | 25973 ft | 380 kts | 22° |
| 2026-04-27 14:19 | 63.06497 | 10.04581 | 25407 ft | 374 kts | 22° |
| 2026-04-27 14:20 | 63.08734 | 10.07445 | 24800 ft | 372 kts | 27° |
| 2026-04-27 14:20 | 63.10780 | 10.10972 | 24207 ft | 374 kts | 37° |
| 2026-04-27 14:20 | 63.12480 | 10.15249 | 23613 ft | 381 kts | 46° |
| 2026-04-27 14:20 | 63.13938 | 10.20319 | 23016 ft | 400 kts | 53° |
| 2026-04-27 14:21 | 63.15125 | 10.25920 | 22388 ft | 407 kts | 62° |
| 2026-04-27 14:21 | 63.15904 | 10.31878 | 21769 ft | 408 kts | 70° |
| 2026-04-27 14:21 | 63.16435 | 10.38028 | 21130 ft | 405 kts | 73° |
| 2026-04-27 14:21 | 63.16846 | 10.44098 | 20495 ft | 402 kts | 74° |
| 2026-04-27 14:22 | 63.17215 | 10.50202 | 19866 ft | 397 kts | 75° |
| 2026-04-27 14:22 | 63.17565 | 10.56138 | 19239 ft | 392 kts | 75° |
| 2026-04-27 14:22 | 63.17916 | 10.62081 | 18616 ft | 387 kts | 74° |
| 2026-04-27 14:22 | 63.18267 | 10.67928 | 18009 ft | 382 kts | 75° |
| 2026-04-27 14:23 | 63.18620 | 10.73664 | 17398 ft | 378 kts | 75° |
| 2026-04-27 14:23 | 63.18984 | 10.79448 | 16769 ft | 373 kts | 75° |
| 2026-04-27 14:23 | 63.19330 | 10.84864 | 16182 ft | 368 kts | 74° |
| 2026-04-27 14:23 | 63.19682 | 10.90347 | 15598 ft | 362 kts | 74° |
| 2026-04-27 14:24 | 63.20028 | 10.95757 | 15037 ft | 357 kts | 74° |
| 2026-04-27 14:24 | 63.20370 | 11.01103 | 14469 ft | 352 kts | 74° |
| 2026-04-27 14:24 | 63.20708 | 11.06434 | 14084 ft | 342 kts | 74° |
| 2026-04-27 14:24 | 63.21026 | 11.11522 | 13851 ft | 328 kts | 74° |
| 2026-04-27 14:25 | 63.21325 | 11.16374 | 13739 ft | 313 kts | 73° |
| 2026-04-27 14:25 | 63.21614 | 11.21068 | 13595 ft | 300 kts | 73° |
| 2026-04-27 14:25 | 63.21890 | 11.25529 | 13451 ft | 289 kts | 72° |
| 2026-04-27 14:25 | 63.22158 | 11.29840 | 13302 ft | 278 kts | 72° |
| 2026-04-27 14:26 | 63.22417 | 11.34014 | 13156 ft | 267 kts | 72° |
| 2026-04-27 14:26 | 63.22662 | 11.37966 | 13025 ft | 257 kts | 71° |
| 2026-04-27 14:26 | 63.22803 | 11.41901 | 12808 ft | 258 kts | 81° |
| 2026-04-27 14:26 | 63.22634 | 11.45870 | 12470 ft | 264 kts | 89° |
| 2026-04-27 14:27 | 63.22312 | 11.49870 | 12149 ft | 264 kts | 91° |
| 2026-04-27 14:27 | 63.21978 | 11.53872 | 11842 ft | 261 kts | 90° |
| 2026-04-27 14:27 | 63.21834 | 11.57781 | 11412 ft | 254 kts | 75° |
| 2026-04-27 14:27 | 63.22211 | 11.61534 | 10988 ft | 246 kts | 62° |
| 2026-04-27 14:28 | 63.22763 | 11.65075 | 10593 ft | 246 kts | 62° |
| 2026-04-27 14:28 | 63.23301 | 11.68649 | 10303 ft | 244 kts | 63° |
| 2026-04-27 14:28 | 63.23916 | 11.72117 | 10017 ft | 234 kts | 54° |
| 2026-04-27 14:28 | 63.24822 | 11.74970 | 9784 ft | 226 kts | 41° |
| 2026-04-27 14:29 | 63.25884 | 11.77527 | 9512 ft | 225 kts | 39° |
| 2026-04-27 14:29 | 63.26942 | 11.80051 | 9250 ft | 226 kts | 40° |
| 2026-04-27 14:29 | 63.27999 | 11.82651 | 8990 ft | 224 kts | 40° |
| 2026-04-27 14:29 | 63.29151 | 11.84804 | 8790 ft | 215 kts | 25° |
| 2026-04-27 14:30 | 63.30504 | 11.86185 | 8543 ft | 214 kts | 17° |
| 2026-04-27 14:30 | 63.31928 | 11.86945 | 8290 ft | 210 kts | 1° |
| 2026-04-27 14:30 | 63.33362 | 11.86599 | 8051 ft | 209 kts | 345° |
| 2026-04-27 14:30 | 63.34652 | 11.85169 | 7824 ft | 211 kts | 325° |
| 2026-04-27 14:31 | 63.35612 | 11.82661 | 7582 ft | 218 kts | 304° |
| 2026-04-27 14:31 | 63.36125 | 11.79486 | 7341 ft | 223 kts | 288° |
| 2026-04-27 14:31 | 63.36416 | 11.76055 | 7083 ft | 225 kts | 286° |
| 2026-04-27 14:31 | 63.36694 | 11.72648 | 6830 ft | 220 kts | 286° |
| 2026-04-27 14:32 | 63.36977 | 11.69366 | 6583 ft | 214 kts | 287° |
| 2026-04-27 14:32 | 63.37262 | 11.66215 | 6350 ft | 200 kts | 287° |
| 2026-04-27 14:32 | 63.37524 | 11.63317 | 6133 ft | 185 kts | 287° |
| 2026-04-27 14:32 | 63.37775 | 11.60556 | 6001 ft | 181 kts | 288° |
| 2026-04-27 14:33 | 63.38030 | 11.57780 | 5956 ft | 182 kts | 288° |
| 2026-04-27 14:33 | 63.38435 | 11.55210 | 5892 ft | 175 kts | 308° |
| 2026-04-27 14:33 | 63.39317 | 11.53479 | 5779 ft | 165 kts | 337° |
| 2026-04-27 14:33 | 63.40368 | 11.52650 | 5574 ft | 156 kts | 343° |
| 2026-04-27 14:34 | 63.41358 | 11.51895 | 5412 ft | 148 kts | 341° |
| 2026-04-27 14:34 | 63.42328 | 11.51100 | 5269 ft | 149 kts | 341° |
| 2026-04-27 14:34 | 63.43294 | 11.50340 | 5123 ft | 148 kts | 342° |
| 2026-04-27 14:34 | 63.44270 | 11.49579 | 4978 ft | 149 kts | 341° |
| 2026-04-27 14:35 | 63.45159 | 11.48429 | 4825 ft | 151 kts | 315° |
| 2026-04-27 14:35 | 63.45583 | 11.46272 | 4696 ft | 159 kts | 283° |
| 2026-04-27 14:35 | 63.45609 | 11.43737 | 4539 ft | 162 kts | 275° |
| 2026-04-27 14:35 | 63.45611 | 11.41267 | 4369 ft | 155 kts | 277° |
| 2026-04-27 14:36 | 63.45626 | 11.38993 | 4230 ft | 138 kts | 277° |
| 2026-04-27 14:36 | 63.45641 | 11.36832 | 4134 ft | 140 kts | 277° |
| 2026-04-27 14:36 | 63.45651 | 11.34693 | 3975 ft | 139 kts | 276° |
| 2026-04-27 14:36 | 63.45660 | 11.32529 | 3852 ft | 142 kts | 278° |
| 2026-04-27 14:37 | 63.45687 | 11.30314 | 3604 ft | 144 kts | 276° |
| 2026-04-27 14:37 | 63.45681 | 11.28066 | 3378 ft | 144 kts | 275° |
| 2026-04-27 14:37 | 63.45682 | 11.25826 | 3166 ft | 143 kts | 275° |
| 2026-04-27 14:37 | 63.45694 | 11.23601 | 2954 ft | 144 kts | 275° |
| 2026-04-27 14:38 | 63.45702 | 11.21367 | 2740 ft | 143 kts | 275° |
| 2026-04-27 14:38 | 63.45709 | 11.19142 | 2531 ft | 144 kts | 275° |
| 2026-04-27 14:38 | 63.45718 | 11.16920 | 2312 ft | 142 kts | 275° |
| 2026-04-27 14:38 | 63.45727 | 11.14712 | 2104 ft | 143 kts | 275° |
| 2026-04-27 14:39 | 63.45734 | 11.12515 | 1880 ft | 140 kts | 274° |
| 2026-04-27 14:39 | 63.45739 | 11.10354 | 1674 ft | 140 kts | 274° |
| 2026-04-27 14:39 | 63.45746 | 11.08175 | 1465 ft | 138 kts | 274° |
| 2026-04-27 14:39 | 63.45754 | 11.06047 | 1261 ft | 138 kts | 273° |
| 2026-04-27 14:40 | 63.45760 | 11.03905 | 1054 ft | 137 kts | 272° |
| 2026-04-27 14:40 | 63.45766 | 11.01817 | 855 ft | 135 kts | 272° |
| 2026-04-27 14:40 | 63.45750 | 10.99743 | 640 ft | 131 kts | 271° |
| 2026-04-27 14:40 | 63.45748 | 10.97746 | 481 ft | 130 kts | 271° |
| 2026-04-27 14:41 | 63.45754 | 10.95740 | 260 ft | 128 kts | 271° |
| 2026-04-27 14:41 | 63.45756 | 10.93789 | 67 ft | 122 kts | 270° |
| 2026-04-27 14:41 | 63.45758 | 10.92083 | 10 ft | 83 kts | 270° |
| 2026-04-27 14:41 | 63.45761 | 10.91146 | 4 ft | 50 kts | 270° |
| 2026-04-27 14:42 | 63.45752 | 10.90671 | 0 ft | 20 kts | 256° |
| 2026-04-27 14:42 | 63.45702 | 10.90432 | 0 ft | 9 kts | 223° |
| 2026-04-27 14:42 | 63.45640 | 10.90376 | 0 ft | 10 kts | 179° |
| 2026-04-27 14:42 | 63.45600 | 10.90476 | 0 ft | 10 kts | 96° |
| 2026-04-27 14:43 | 63.45599 | 10.90667 | 0 ft | 13 kts | 90° |
| 2026-04-27 14:43 | 63.45599 | 10.90881 | 2 ft | 13 kts | 91° |
| 2026-04-27 14:43 | 63.45598 | 10.91071 | 4 ft | 10 kts | 94° |
| 2026-04-27 14:43 | 63.45563 | 10.91143 | 4 ft | 7 kts | 179° |
| 2026-04-27 14:44 | 63.45513 | 10.91144 | 4 ft | 7 kts | 181° |
| 2026-04-27 14:44 | 63.45461 | 10.91144 | 4 ft | 7 kts | 180° |
| 2026-04-27 14:44 | 63.45408 | 10.91145 | 4 ft | 6 kts | 179° |
| 2026-04-27 14:44 | 63.45379 | 10.91168 | 4 ft | 3 kts | 116° |
| 2026-04-27 14:45 | 63.45377 | 10.91209 | 4 ft | 2 kts | 91° |
| 2026-04-27 14:45 | 63.45377 | 10.91240 | 4 ft | 1 kts | 90° |
| 2026-04-27 14:45 | 63.45377 | 10.91258 | 4 ft | 0 kts | 90° |
| 2026-04-27 14:45 | 63.45377 | 10.91266 | 4 ft | 0 kts | 90° |